Weather at Holmbeck Farm Airfield

Public forecast

Using degrees Celsius for public forecast. Weather courtesy of forecast.io.

Closest aviation weather report (METAR) to Holmbeck Farm Airfield

Closest report is Cranfield Airport, 10.6 nm (19.6 km) NNE. Retrieved 2021/06/12 10:20 UTC (33 minutes ago):

EGTC 121020Z 30009KT 270V330 9999 SCT031 17/11 Q1024

Closest aviation forecast (TAF) to Holmbeck Farm Airfield

Closest forecast is London Luton Airport, 13.5 nm (25.0 km) E. Retrieved 2021/06/12 06:00 UTC (5 hours ago):

TAF EGGW 120453Z 1206/1306 30008KT 9999 SCT035